createdAt,value
2022-09-14T00:01:45.042Z,4.15
2022-09-14T00:04:16.792Z,3.60
2022-09-14T00:06:45.743Z,3.50
2022-09-14T00:09:17.223Z,3.45
2022-09-14T00:11:47.488Z,3.15
2022-09-14T00:14:16.998Z,3.20
2022-09-14T00:16:46.149Z,2.65
2022-09-14T00:19:20.440Z,2.97
2022-09-14T00:24:20.459Z,2.83
2022-09-14T00:26:50.435Z,2.80
2022-09-14T00:29:19.666Z,2.30
2022-09-14T00:31:48.371Z,2.75
2022-09-14T00:34:18.329Z,3.08
2022-09-14T00:36:48.803Z,3.53
2022-09-14T00:39:19.493Z,4.25
2022-09-14T00:41:50.410Z,4.00
2022-09-14T00:44:59.998Z,3.70
2022-09-14T00:47:32.042Z,4.15
2022-09-14T00:50:04.137Z,5.22
2022-09-14T00:52:36.503Z,8.25
2022-09-14T00:55:09.162Z,11.90
2022-09-14T00:57:42.879Z,8.23
2022-09-14T01:00:14.721Z,6.82
2022-09-14T01:02:43.983Z,6.18
2022-09-14T01:05:14.710Z,4.75
2022-09-14T01:08:16.571Z,4.60
2022-09-14T01:11:00.019Z,3.92
2022-09-14T01:13:41.278Z,3.83
2022-09-14T01:16:19.868Z,4.97
2022-09-14T01:18:55.489Z,4.28
2022-09-14T01:21:28.972Z,3.78
2022-09-14T01:24:06.204Z,3.40
2022-09-14T01:27:08.514Z,2.97
2022-09-14T01:29:45.957Z,2.67
2022-09-14T01:32:18.810Z,5.65
2022-09-14T01:34:54.051Z,11.38
2022-09-14T01:37:27.546Z,9.25
2022-09-14T01:40:01.586Z,6.43
2022-09-14T01:42:32.132Z,4.50
2022-09-14T01:45:08.569Z,2.90
2022-09-14T01:47:40.974Z,2.95
2022-09-14T01:50:14.044Z,2.78
2022-09-14T01:52:46.318Z,2.47
2022-09-14T01:55:19.528Z,2.30
2022-09-14T01:57:52.259Z,2.38
2022-09-14T02:00:23.192Z,2.40
2022-09-14T02:02:56.614Z,2.45
2022-09-14T02:05:32.270Z,2.53
2022-09-14T02:08:01.461Z,2.83
2022-09-14T02:10:30.447Z,2.78
2022-09-14T02:12:59.976Z,2.65
2022-09-14T02:15:29.967Z,2.50
2022-09-14T02:17:58.499Z,2.85
2022-09-14T02:20:42.596Z,2.35
2022-09-14T02:23:11.251Z,2.60
2022-09-14T02:25:41.134Z,2.40
2022-09-14T02:28:10.128Z,2.50
2022-09-14T02:30:49.112Z,3.00
2022-09-14T02:33:22.423Z,2.63
2022-09-14T02:35:55.109Z,2.95
2022-09-14T02:38:30.309Z,2.88
2022-09-14T02:41:04.803Z,2.55
2022-09-14T02:43:40.992Z,2.50
2022-09-14T02:46:19.952Z,2.92
2022-09-14T02:48:53.367Z,2.72
2022-09-14T02:51:29.055Z,2.93
2022-09-14T02:54:02.839Z,3.08
2022-09-14T02:56:32.674Z,2.65
2022-09-14T02:59:01.171Z,2.78
2022-09-14T03:01:31.354Z,2.85
2022-09-14T03:03:59.997Z,3.00
2022-09-14T03:06:28.503Z,2.85
2022-09-14T03:08:57.071Z,2.90
2022-09-14T03:11:25.575Z,2.90
2022-09-14T03:13:54.079Z,2.90
2022-09-14T03:16:23.089Z,2.40
2022-09-14T03:18:53.302Z,2.63
2022-09-14T03:21:21.875Z,2.80
2022-09-14T03:23:52.698Z,2.60
2022-09-14T03:26:23.981Z,2.95
2022-09-14T03:28:53.840Z,2.75
2022-09-14T03:31:23.477Z,3.17
2022-09-14T03:33:56.681Z,2.90
2022-09-14T03:36:27.510Z,2.80
2022-09-14T03:38:58.596Z,2.60
2022-09-14T03:41:27.311Z,2.92
2022-09-14T03:43:55.820Z,2.70
2022-09-14T03:46:26.584Z,2.80
2022-09-14T03:48:57.061Z,3.08
2022-09-14T03:51:25.732Z,2.60
2022-09-14T03:53:54.538Z,2.83
2022-09-14T03:56:24.079Z,3.08
2022-09-14T03:58:52.702Z,2.88
2022-09-14T04:01:23.584Z,3.25
2022-09-14T04:03:52.626Z,2.95
2022-09-14T04:06:22.565Z,2.88
2022-09-14T04:08:51.132Z,3.03
2022-09-14T04:11:21.766Z,2.83
2022-09-14T04:13:51.371Z,3.13
2022-09-14T04:16:23.658Z,3.05
2022-09-14T04:18:53.144Z,2.90
2022-09-14T04:21:25.699Z,3.03
2022-09-14T04:24:15.095Z,3.08
2022-09-14T04:26:44.747Z,3.17
2022-09-14T04:29:14.702Z,2.92
2022-09-14T04:31:43.410Z,3.22
2022-09-14T04:34:14.198Z,3.42
2022-09-14T04:36:44.400Z,3.30
2022-09-14T04:39:15.239Z,3.53
2022-09-14T04:41:44.109Z,3.08
2022-09-14T04:44:13.214Z,3.50
2022-09-14T04:46:46.650Z,3.45
2022-09-14T04:49:16.668Z,3.42
2022-09-14T04:51:46.914Z,3.25
2022-09-14T04:54:17.513Z,3.00
2022-09-14T04:56:46.144Z,3.67
2022-09-14T04:59:16.009Z,3.53
2022-09-14T05:01:47.536Z,3.00
2022-09-14T05:04:16.622Z,3.10
2022-09-14T05:06:46.728Z,3.30
2022-09-14T05:09:17.276Z,3.25
2022-09-14T05:11:46.041Z,3.15
2022-09-14T05:14:15.087Z,3.30
2022-09-14T05:16:44.966Z,3.40
2022-09-14T05:19:15.952Z,3.15
2022-09-14T05:21:46.512Z,3.25
2022-09-14T05:24:17.472Z,2.80
2022-09-14T05:26:47.106Z,3.20
2022-09-14T05:29:17.412Z,3.45
2022-09-14T05:31:46.383Z,2.90
2022-09-14T05:34:14.892Z,2.92
2022-09-14T05:36:43.717Z,4.05
2022-09-14T05:39:13.649Z,3.03
2022-09-14T05:41:42.355Z,3.35
2022-09-14T05:44:10.954Z,2.67
2022-09-14T05:46:39.537Z,3.00
2022-09-14T05:49:08.099Z,3.50
2022-09-14T05:51:36.640Z,3.30
2022-09-14T05:54:10.164Z,3.33
2022-09-14T05:56:40.178Z,3.63
2022-09-14T05:59:08.707Z,3.50
2022-09-14T06:01:37.254Z,3.35
2022-09-14T06:04:05.923Z,3.47
2022-09-14T06:06:34.919Z,3.85
2022-09-14T06:09:03.861Z,3.47
2022-09-14T06:11:33.874Z,3.65
2022-09-14T06:14:04.314Z,3.63
2022-09-14T06:16:32.951Z,3.38
2022-09-14T06:19:02.055Z,3.70
2022-09-14T06:21:33.465Z,3.50
2022-09-14T06:24:02.082Z,3.17
2022-09-14T06:26:31.048Z,3.30
2022-09-14T06:28:59.646Z,4.05
2022-09-14T06:31:29.555Z,3.28
2022-09-14T06:33:58.094Z,3.40
2022-09-14T06:36:28.601Z,3.40
2022-09-14T06:38:57.523Z,3.20
2022-09-14T06:41:29.281Z,3.08
2022-09-14T06:43:58.797Z,3.28
2022-09-14T06:46:30.880Z,3.13
2022-09-14T06:49:01.722Z,3.22
2022-09-14T06:51:32.671Z,3.45
2022-09-14T06:54:02.601Z,2.90
2022-09-14T06:56:34.341Z,3.10
2022-09-14T06:59:03.565Z,2.92
2022-09-14T07:01:33.755Z,2.90
2022-09-14T07:04:04.095Z,3.03
2022-09-14T07:06:34.509Z,3.08
2022-09-14T07:09:05.783Z,3.10
2022-09-14T07:11:34.739Z,3.10
2022-09-14T07:14:03.287Z,3.05
2022-09-14T07:16:34.694Z,2.85
2022-09-14T07:19:05.867Z,3.00
2022-09-14T07:21:35.736Z,3.55
2022-09-14T07:24:05.185Z,3.10
2022-09-14T07:26:39.621Z,3.45
2022-09-14T07:29:11.249Z,3.15
2022-09-14T07:31:42.939Z,3.60
2022-09-14T07:34:12.286Z,3.22
2022-09-14T07:36:41.975Z,3.55
2022-09-14T07:39:13.125Z,3.15
2022-09-14T07:41:43.490Z,2.80
2022-09-14T07:44:15.770Z,3.38
2022-09-14T07:46:46.931Z,3.35
2022-09-14T07:49:17.193Z,2.97
2022-09-14T07:51:46.197Z,3.13
2022-09-14T07:54:16.791Z,3.45
2022-09-14T07:56:45.795Z,2.72
2022-09-14T08:02:07.536Z,3.13
2022-09-14T08:04:36.927Z,2.85
2022-09-14T08:07:06.071Z,3.20
2022-09-14T08:09:34.860Z,2.70
2022-09-14T08:12:05.941Z,3.03
2022-09-14T08:14:34.726Z,2.92
2022-09-14T08:17:03.327Z,2.85
2022-09-14T08:19:33.349Z,3.00
2022-09-14T08:22:01.924Z,2.90
2022-09-14T08:24:30.465Z,3.10
2022-09-14T08:26:59.878Z,2.75
2022-09-14T08:29:28.670Z,2.60
2022-09-14T08:31:58.550Z,3.10
2022-09-14T08:34:27.304Z,2.55
2022-09-14T08:36:57.350Z,2.67
2022-09-14T08:39:25.925Z,3.00
2022-09-14T08:41:56.258Z,2.25
2022-09-14T08:44:28.507Z,2.60
2022-09-14T08:47:03.286Z,2.78
2022-09-14T08:49:43.655Z,2.85
2022-09-14T08:52:22.936Z,3.22
2022-09-14T08:54:55.709Z,2.83
2022-09-14T08:57:30.550Z,2.58
2022-09-14T09:00:09.173Z,2.75
2022-09-14T09:02:59.339Z,4.30
2022-09-14T09:05:37.764Z,2.90
2022-09-14T09:08:18.883Z,2.95
2022-09-14T09:10:48.725Z,3.00
2022-09-14T09:13:21.909Z,2.78
2022-09-14T09:15:52.910Z,2.85
2022-09-14T09:18:27.593Z,4.35
2022-09-14T09:21:00.498Z,2.58
2022-09-14T09:23:33.256Z,2.80
2022-09-14T09:26:05.845Z,3.03
2022-09-14T09:28:35.399Z,2.40
2022-09-14T09:31:12.659Z,2.58
2022-09-14T09:33:43.609Z,2.35
2022-09-14T09:36:15.885Z,2.75
2022-09-14T09:38:45.850Z,2.35
2022-09-14T09:41:18.728Z,2.22
2022-09-14T09:44:02.288Z,2.70
2022-09-14T09:46:33.224Z,3.05
2022-09-14T09:49:05.820Z,2.78
2022-09-14T09:51:36.004Z,2.80
2022-09-14T09:54:10.192Z,3.10
2022-09-14T09:59:24.518Z,2.72
2022-09-14T10:01:54.800Z,2.58
2022-09-14T10:04:27.978Z,2.45
2022-09-14T10:06:57.833Z,3.58
2022-09-14T10:09:29.790Z,3.83
2022-09-14T10:12:00.802Z,5.07
2022-09-14T10:14:32.522Z,2.80
2022-09-14T10:17:19.222Z,2.78
2022-09-14T10:19:52.415Z,2.70
2022-09-14T10:22:28.070Z,3.58
2022-09-14T10:25:00.799Z,2.08
2022-09-14T10:27:38.015Z,2.55
2022-09-14T10:30:13.113Z,6.03
2022-09-14T10:32:44.876Z,2.70
2022-09-14T10:35:15.512Z,4.15
2022-09-14T10:38:01.031Z,9.38
2022-09-14T10:40:36.723Z,3.03
2022-09-14T10:43:15.183Z,8.45
2022-09-14T10:45:58.413Z,17.83
2022-09-14T10:48:44.754Z,15.25
2022-09-14T10:51:37.503Z,19.67
2022-09-14T10:54:17.664Z,8.43
2022-09-14T10:57:01.467Z,2.63
2022-09-14T10:59:37.393Z,3.13
2022-09-14T11:02:25.321Z,2.47
2022-09-14T11:05:05.703Z,2.72
2022-09-14T11:07:41.718Z,2.67
2022-09-14T11:10:20.105Z,2.60
2022-09-14T11:13:01.105Z,2.50
2022-09-14T11:15:36.774Z,1.95
2022-09-14T11:18:19.734Z,2.22
2022-09-14T11:21:02.095Z,2.60
2022-09-14T11:23:41.872Z,2.30
2022-09-14T11:26:13.750Z,2.40
2022-09-14T11:28:47.778Z,2.53
2022-09-14T11:31:23.248Z,2.33
2022-09-14T11:33:58.302Z,2.30
2022-09-14T11:36:30.465Z,2.65
2022-09-14T11:39:07.045Z,2.60
2022-09-14T11:41:45.041Z,2.40
2022-09-14T11:44:21.171Z,2.40
2022-09-14T11:46:58.719Z,2.70
2022-09-14T11:49:35.598Z,4.00
2022-09-14T11:52:09.093Z,4.35
2022-09-14T11:54:46.042Z,6.38
2022-09-14T11:57:18.861Z,4.20
2022-09-14T11:59:52.031Z,2.75
2022-09-14T12:02:50.123Z,2.40
2022-09-14T12:05:26.980Z,3.17
2022-09-14T12:08:03.997Z,2.25
2022-09-14T12:10:33.303Z,2.50
2022-09-14T12:13:21.768Z,2.38
2022-09-14T12:16:04.515Z,2.83
2022-09-14T12:18:37.168Z,2.38
2022-09-14T12:21:09.606Z,2.30
2022-09-14T12:23:48.174Z,2.67
2022-09-14T12:26:29.934Z,3.83
2022-09-14T12:29:04.216Z,3.25
2022-09-14T12:31:40.190Z,2.60
2022-09-14T12:34:19.294Z,3.00
2022-09-14T12:37:05.697Z,2.83
2022-09-14T12:39:37.988Z,3.10
2022-09-14T12:42:27.830Z,3.15
2022-09-14T12:44:56.514Z,2.80
2022-09-14T12:47:52.047Z,2.70
2022-09-14T12:50:22.926Z,2.47
2022-09-14T12:53:03.947Z,4.60
2022-09-14T12:55:45.063Z,3.25
2022-09-14T12:58:29.773Z,3.28
2022-09-14T13:01:17.627Z,2.95
2022-09-14T13:03:53.102Z,2.38
2022-09-14T13:06:23.344Z,2.50
2022-09-14T13:08:57.622Z,2.17
2022-09-14T13:11:31.985Z,2.70
2022-09-14T13:14:01.795Z,3.58
2022-09-14T13:16:40.940Z,3.28
2022-09-14T13:19:22.450Z,2.92
2022-09-14T13:21:53.589Z,2.50
2022-09-14T13:24:29.226Z,2.30
2022-09-14T13:27:00.162Z,3.13
2022-09-14T13:29:29.894Z,2.70
2022-09-14T13:32:03.672Z,3.00
2022-09-14T13:37:06.159Z,2.65
2022-09-14T13:39:37.126Z,5.57
2022-09-14T13:42:07.032Z,2.70
2022-09-14T13:44:37.357Z,7.45
2022-09-14T13:47:07.462Z,5.75
2022-09-14T13:49:37.790Z,10.18
2022-09-14T13:52:20.230Z,3.95
2022-09-14T13:54:49.073Z,3.83
2022-09-14T13:57:19.686Z,2.35
2022-09-14T14:00:16.306Z,2.42
2022-09-14T14:02:50.086Z,2.28
2022-09-14T14:05:27.431Z,2.42
2022-09-14T14:07:57.802Z,3.28
2022-09-14T14:10:29.847Z,2.80
2022-09-14T14:12:59.230Z,3.33
2022-09-14T14:15:48.931Z,3.28
2022-09-14T14:18:40.955Z,3.05
2022-09-14T14:21:27.657Z,2.65
2022-09-14T14:24:25.252Z,3.03
2022-09-14T14:26:58.158Z,2.25
2022-09-14T14:29:27.265Z,2.72
2022-09-14T14:31:57.291Z,2.60
2022-09-14T14:34:28.299Z,2.63
2022-09-14T14:36:58.647Z,2.50
2022-09-14T14:39:28.090Z,2.85
2022-09-14T14:41:57.505Z,5.35
2022-09-14T14:44:29.156Z,2.40
2022-09-14T14:46:58.971Z,2.35
2022-09-14T14:49:27.812Z,2.67
2022-09-14T14:51:56.600Z,2.47
2022-09-14T14:54:28.206Z,2.30
2022-09-14T14:56:57.146Z,2.42
2022-09-14T14:59:31.314Z,2.30
2022-09-14T15:04:28.540Z,3.10
2022-09-14T15:06:57.268Z,2.58
2022-09-14T15:09:29.783Z,2.80
2022-09-14T15:11:58.486Z,2.60
2022-09-14T15:14:27.852Z,2.67
2022-09-14T15:17:00.733Z,2.70
2022-09-14T15:19:29.902Z,2.60
2022-09-14T15:22:01.585Z,2.90
2022-09-14T15:24:32.363Z,3.05
2022-09-14T15:27:01.131Z,2.50
2022-09-14T15:29:29.926Z,4.53
2022-09-14T15:31:59.586Z,3.05
2022-09-14T15:34:29.142Z,2.70
2022-09-14T15:37:05.608Z,2.70
2022-09-14T15:39:38.787Z,3.72
2022-09-14T15:42:08.110Z,2.90
2022-09-14T15:44:36.729Z,2.88
2022-09-14T15:47:05.659Z,2.67
2022-09-14T15:49:34.357Z,3.00
2022-09-14T15:52:03.450Z,2.70
2022-09-14T15:54:34.191Z,3.70
2022-09-14T15:57:06.477Z,2.70
2022-09-14T15:59:37.404Z,2.22
2022-09-14T16:02:06.786Z,3.13
2022-09-14T16:04:39.650Z,5.97
2022-09-14T16:07:11.086Z,3.15
2022-09-14T16:09:44.221Z,3.15
2022-09-14T16:12:15.435Z,3.10
2022-09-14T16:14:44.154Z,2.72
2022-09-14T16:17:12.798Z,3.50
2022-09-14T16:19:47.527Z,2.67
2022-09-14T16:22:16.456Z,2.53
2022-09-14T16:24:45.290Z,1.92
2022-09-14T16:27:16.088Z,2.30
2022-09-14T16:29:44.809Z,2.55
2022-09-14T16:32:13.415Z,3.30
2022-09-14T16:34:42.103Z,12.02
2022-09-14T16:37:10.799Z,3.08
2022-09-14T16:39:39.410Z,2.38
2022-09-14T16:42:08.461Z,2.55
2022-09-14T16:44:38.557Z,2.63
2022-09-14T16:47:07.893Z,2.78
2022-09-14T16:49:39.380Z,2.45
2022-09-14T16:52:08.067Z,2.40
2022-09-14T16:54:36.645Z,2.63
2022-09-14T16:57:05.243Z,3.08
2022-09-14T16:59:33.827Z,4.03
2022-09-14T17:02:03.854Z,9.18
2022-09-14T17:04:33.044Z,3.20
2022-09-14T17:07:01.651Z,3.70
2022-09-14T17:09:31.625Z,4.03
2022-09-14T17:12:00.606Z,4.45
2022-09-14T17:14:30.839Z,4.70
2022-09-14T17:17:00.710Z,5.10
2022-09-14T17:19:30.899Z,4.47
2022-09-14T17:21:59.575Z,4.90
2022-09-14T17:24:28.160Z,4.38
2022-09-14T17:26:56.860Z,5.85
2022-09-14T17:29:25.499Z,5.70
2022-09-14T17:31:56.036Z,8.57
2022-09-14T17:34:24.897Z,5.85
2022-09-14T17:36:54.916Z,6.13
2022-09-14T17:39:23.443Z,4.28
2022-09-14T17:41:52.102Z,5.85
2022-09-14T17:44:20.844Z,7.13
2022-09-14T17:46:52.934Z,14.40
2022-09-14T17:49:23.232Z,20.52
2022-09-14T17:51:53.101Z,16.35
2022-09-14T17:54:23.121Z,22.80
2022-09-14T17:56:52.562Z,39.03
2022-09-14T17:59:22.410Z,23.15
2022-09-14T18:01:51.473Z,7.78
2022-09-14T18:04:20.544Z,7.28
2022-09-14T18:06:50.138Z,5.75
2022-09-14T18:09:21.411Z,5.13
2022-09-14T18:11:52.496Z,6.05
2022-09-14T18:14:21.007Z,23.85
2022-09-14T18:16:49.949Z,23.42
2022-09-14T18:19:18.635Z,32.35
2022-09-14T18:21:52.125Z,26.73
2022-09-14T18:24:21.756Z,20.30
2022-09-14T18:26:51.876Z,22.35
2022-09-14T18:29:23.349Z,32.95
2022-09-14T18:31:52.575Z,32.10
2022-09-14T18:34:21.994Z,28.45
2022-09-14T18:36:52.386Z,17.88
2022-09-14T18:39:20.917Z,16.55
2022-09-14T18:41:53.791Z,17.63
2022-09-14T18:44:22.537Z,15.23
2022-09-14T18:46:51.725Z,10.43
2022-09-14T18:49:20.951Z,10.63
2022-09-14T18:51:49.619Z,24.70
2022-09-14T18:54:18.621Z,35.90
2022-09-14T18:56:47.175Z,32.75
2022-09-14T18:59:17.358Z,25.13
2022-09-14T19:01:46.029Z,13.98
2022-09-14T19:04:15.893Z,13.68
2022-09-14T19:06:44.750Z,13.15
2022-09-14T19:09:13.491Z,12.10
2022-09-14T19:11:42.187Z,10.00
2022-09-14T19:14:13.023Z,9.13
2022-09-14T19:16:43.311Z,11.45
2022-09-14T19:19:14.266Z,23.35
2022-09-14T19:21:43.072Z,24.48
2022-09-14T19:24:13.560Z,16.38
2022-09-14T19:26:45.516Z,16.50
2022-09-14T19:29:14.786Z,21.00
2022-09-14T19:31:45.473Z,18.48
2022-09-14T19:34:14.241Z,8.30
2022-09-14T19:36:42.930Z,10.95
2022-09-14T19:39:11.804Z,8.55
2022-09-14T19:41:40.806Z,8.35
2022-09-14T19:44:09.583Z,12.45
2022-09-14T19:46:39.835Z,6.82
2022-09-14T19:49:14.897Z,5.82
2022-09-14T19:51:44.427Z,6.35
2022-09-14T19:54:13.395Z,8.60
2022-09-14T19:56:42.365Z,9.15
2022-09-14T19:59:11.363Z,17.23
2022-09-14T20:01:41.446Z,12.55
2022-09-14T20:04:11.980Z,11.77
2022-09-14T20:06:42.779Z,9.25
2022-09-14T20:09:13.493Z,7.05
2022-09-14T20:11:43.894Z,7.03
2022-09-14T20:14:14.297Z,7.45
2022-09-14T20:16:44.476Z,6.55
2022-09-14T20:19:16.281Z,7.03
2022-09-14T20:21:46.606Z,6.35
2022-09-14T20:24:18.197Z,5.80
2022-09-14T20:26:47.668Z,8.00
2022-09-14T20:29:17.624Z,11.10
2022-09-14T20:31:47.364Z,14.30
2022-09-14T20:34:20.437Z,22.13
2022-09-14T20:36:49.682Z,19.70
2022-09-14T20:39:19.071Z,28.10
2022-09-14T20:41:47.891Z,19.70
2022-09-14T20:44:22.026Z,27.63
2022-09-14T20:49:23.369Z,15.90
2022-09-14T20:51:54.376Z,12.30
2022-09-14T20:54:23.720Z,13.02
2022-09-14T20:56:52.282Z,9.02
2022-09-14T20:59:22.355Z,5.95
2022-09-14T21:01:52.645Z,6.43
2022-09-14T21:04:25.316Z,8.20
2022-09-14T21:06:55.825Z,7.82
2022-09-14T21:09:25.920Z,7.57
2022-09-14T21:11:55.100Z,11.20
2022-09-14T21:14:24.087Z,11.95
2022-09-14T21:16:56.656Z,8.35
2022-09-14T21:19:28.251Z,9.10
2022-09-14T21:21:57.333Z,7.97
2022-09-14T21:24:26.645Z,5.15
2022-09-14T21:26:57.047Z,5.45
2022-09-14T21:29:25.561Z,6.55
2022-09-14T21:31:54.411Z,8.02
2022-09-14T21:34:23.198Z,9.07
2022-09-14T21:39:55.175Z,7.55
2022-09-14T21:42:23.717Z,8.68
2022-09-14T21:44:52.242Z,12.10
2022-09-14T21:47:21.095Z,17.83
2022-09-14T21:49:49.607Z,14.25
2022-09-14T21:52:19.523Z,12.00
2022-09-14T21:54:48.221Z,8.70
2022-09-14T21:57:16.756Z,15.10
2022-09-14T21:59:45.592Z,15.93
2022-09-14T22:02:15.365Z,9.32
2022-09-14T22:04:44.169Z,9.93
2022-09-14T22:07:12.670Z,14.05
2022-09-14T22:09:43.857Z,11.32
2022-09-14T22:12:12.718Z,12.02
2022-09-14T22:14:41.216Z,10.07
2022-09-14T22:17:09.826Z,8.95
2022-09-14T22:19:38.354Z,7.72
2022-09-14T22:22:06.944Z,9.45
2022-09-14T22:24:38.748Z,8.77
2022-09-14T22:27:10.146Z,5.53
2022-09-14T22:29:40.772Z,5.47
2022-09-14T22:32:11.238Z,5.03
2022-09-14T22:34:41.610Z,5.00
2022-09-14T22:37:10.455Z,6.63
2022-09-14T22:39:38.976Z,5.75
2022-09-14T22:42:09.284Z,4.80
2022-09-14T22:44:37.798Z,4.38
2022-09-14T22:47:06.542Z,4.90
2022-09-14T22:49:35.494Z,4.47
2022-09-14T22:52:04.076Z,3.88
2022-09-14T22:54:32.581Z,4.05
2022-09-14T22:57:01.212Z,4.10
2022-09-14T22:59:31.252Z,4.20
2022-09-14T23:01:59.739Z,4.18
2022-09-14T23:04:28.544Z,4.50
2022-09-14T23:06:57.051Z,5.00
2022-09-14T23:09:25.605Z,4.55
2022-09-14T23:11:54.191Z,4.90
2022-09-14T23:14:22.694Z,5.70
2022-09-14T23:16:52.624Z,4.88
2022-09-14T23:19:21.344Z,4.90
2022-09-14T23:21:49.964Z,6.07
2022-09-14T23:24:18.455Z,4.88
2022-09-14T23:26:47.155Z,7.68
2022-09-14T23:29:17.512Z,18.45
2022-09-14T23:31:46.375Z,11.23
2022-09-14T23:34:16.810Z,7.47
2022-09-14T23:36:45.390Z,5.70
2022-09-14T23:39:13.907Z,5.50
2022-09-14T23:41:42.503Z,5.30
2022-09-14T23:44:11.938Z,4.68
2022-09-14T23:46:40.630Z,4.72
2022-09-14T23:49:11.489Z,5.18
2022-09-14T23:51:41.652Z,5.32
2022-09-14T23:54:11.027Z,5.03
2022-09-14T23:56:39.763Z,4.78
2022-09-14T23:59:10.941Z,4.43
